createdAt,value
2022-12-24T00:01:21.072Z,6.34
2022-12-24T00:04:24.876Z,6.24
2022-12-24T00:07:28.705Z,5.98
2022-12-24T00:10:33.987Z,5.90
2022-12-24T00:13:37.825Z,5.63
2022-12-24T00:16:41.706Z,5.74
2022-12-24T00:19:45.452Z,5.68
2022-12-24T00:22:49.171Z,5.88
2022-12-24T00:25:54.318Z,5.79
2022-12-24T00:28:58.067Z,5.87
2022-12-24T00:32:03.317Z,6.16
2022-12-24T00:35:08.051Z,6.09
2022-12-24T00:38:11.849Z,5.98
2022-12-24T00:41:29.467Z,6.09
2022-12-24T00:44:33.303Z,6.02
2022-12-24T00:47:37.070Z,5.91
2022-12-24T00:50:40.785Z,5.72
2022-12-24T00:53:44.844Z,5.82
2022-12-24T00:56:49.933Z,5.80
2022-12-24T00:59:53.590Z,5.96
2022-12-24T01:02:57.526Z,5.85
2022-12-24T01:06:01.195Z,5.92
2022-12-24T01:09:05.019Z,5.82
2022-12-24T01:12:10.044Z,5.85
2022-12-24T01:15:16.076Z,5.83
2022-12-24T01:18:19.695Z,5.85
2022-12-24T01:21:23.472Z,5.81
2022-12-24T01:24:28.649Z,5.75
2022-12-24T01:27:34.030Z,5.79
2022-12-24T01:30:37.643Z,5.86
2022-12-24T01:33:41.553Z,5.66
2022-12-24T01:36:45.171Z,5.87
2022-12-24T01:39:48.716Z,6.05
2022-12-24T01:43:12.528Z,5.77
2022-12-24T01:46:20.507Z,5.70
2022-12-24T01:49:24.618Z,5.65
2022-12-24T01:52:31.293Z,5.75
2022-12-24T01:55:34.862Z,5.67
2022-12-24T01:58:42.608Z,5.74
2022-12-24T02:01:47.518Z,5.72
2022-12-24T02:04:57.924Z,5.75
2022-12-24T02:08:03.864Z,6.03
2022-12-24T02:11:15.729Z,6.01
2022-12-24T02:14:20.936Z,5.78
2022-12-24T02:17:31.612Z,6.01
2022-12-24T02:21:12.236Z,5.74
2022-12-24T02:24:43.928Z,5.73
2022-12-24T02:27:57.652Z,5.84
2022-12-24T02:31:06.984Z,5.93
2022-12-24T02:34:18.398Z,6.07
2022-12-24T02:37:27.864Z,5.93
2022-12-24T02:40:36.341Z,5.46
2022-12-24T02:43:43.793Z,5.48
2022-12-24T02:46:50.038Z,5.49
2022-12-24T02:49:55.027Z,5.46
2022-12-24T02:52:58.563Z,5.52
2022-12-24T02:56:30.626Z,5.71
2022-12-24T02:59:47.224Z,5.71
2022-12-24T03:03:10.446Z,5.57
2022-12-24T03:06:21.240Z,5.71
2022-12-24T03:09:28.450Z,5.78
2022-12-24T03:12:37.237Z,5.68
2022-12-24T03:15:41.502Z,5.73
2022-12-24T03:18:50.688Z,5.56
2022-12-24T03:21:58.113Z,5.68
2022-12-24T03:25:01.996Z,5.60
2022-12-24T03:28:07.895Z,5.41
2022-12-24T03:31:12.370Z,5.52
2022-12-24T03:34:21.569Z,5.60
2022-12-24T03:37:26.937Z,5.53
2022-12-24T03:40:30.874Z,5.34
2022-12-24T03:43:34.498Z,5.54
2022-12-24T03:46:38.100Z,5.55
2022-12-24T03:49:43.094Z,5.41
2022-12-24T03:52:46.809Z,5.36
2022-12-24T03:55:51.283Z,5.44
2022-12-24T03:58:55.644Z,5.50
2022-12-24T04:01:59.425Z,5.21
2022-12-24T04:05:05.026Z,5.20
2022-12-24T04:08:09.171Z,5.23
2022-12-24T04:11:14.917Z,5.19
2022-12-24T04:14:18.883Z,5.29
2022-12-24T04:17:22.430Z,5.26
2022-12-24T04:20:27.344Z,5.27
2022-12-24T04:23:32.323Z,4.81
2022-12-24T04:26:35.998Z,5.22
2022-12-24T04:29:41.149Z,5.19
2022-12-24T04:32:44.741Z,5.10
2022-12-24T04:35:51.095Z,5.36
2022-12-24T04:38:54.639Z,5.17
2022-12-24T04:42:00.504Z,5.26
2022-12-24T04:45:04.242Z,5.44
2022-12-24T04:48:07.861Z,5.26
2022-12-24T04:51:13.410Z,5.32
2022-12-24T04:54:16.956Z,5.42
2022-12-24T04:57:20.557Z,5.14
2022-12-24T05:00:24.401Z,5.26
2022-12-24T05:03:29.320Z,5.47
2022-12-24T05:06:35.016Z,5.28
2022-12-24T05:09:38.774Z,5.48
2022-12-24T05:12:42.384Z,5.59
2022-12-24T05:15:47.093Z,5.42
2022-12-24T05:18:51.264Z,5.34
2022-12-24T05:22:11.394Z,5.26
2022-12-24T05:25:32.539Z,5.42
2022-12-24T05:28:36.076Z,5.50
2022-12-24T05:31:40.733Z,5.46
2022-12-24T05:34:44.399Z,5.21
2022-12-24T05:37:49.356Z,5.38
2022-12-24T05:40:53.035Z,5.55
2022-12-24T05:43:56.909Z,5.62
2022-12-24T05:47:00.734Z,5.56
2022-12-24T05:50:04.430Z,5.40
2022-12-24T05:53:09.809Z,5.26
2022-12-24T05:56:16.418Z,5.36
2022-12-24T05:59:20.097Z,5.42
2022-12-24T06:02:24.376Z,5.16
2022-12-24T06:05:28.154Z,5.20
2022-12-24T06:08:35.181Z,5.45
2022-12-24T06:11:39.154Z,5.52
2022-12-24T06:14:43.031Z,5.38
2022-12-24T06:17:46.802Z,5.58
2022-12-24T06:20:52.592Z,5.40
2022-12-24T06:23:58.116Z,5.55
2022-12-24T06:27:01.916Z,5.87
2022-12-24T06:30:07.193Z,6.27
2022-12-24T06:33:10.940Z,6.60
2022-12-24T06:36:18.533Z,6.89
2022-12-24T06:39:23.940Z,7.11
2022-12-24T06:42:27.705Z,7.30
2022-12-24T06:45:32.395Z,7.07
2022-12-24T06:48:36.341Z,6.92
2022-12-24T06:51:40.082Z,6.76
2022-12-24T06:54:45.192Z,6.50
2022-12-24T06:57:48.950Z,6.50
2022-12-24T07:00:52.614Z,6.41
2022-12-24T07:03:56.494Z,6.27
2022-12-24T07:07:00.254Z,6.45
2022-12-24T07:10:06.319Z,6.34
2022-12-24T07:13:10.118Z,6.51
2022-12-24T07:16:13.982Z,6.60
2022-12-24T07:19:18.058Z,6.70
2022-12-24T07:22:21.893Z,7.13
2022-12-24T07:25:28.185Z,7.63
2022-12-24T07:28:32.912Z,8.23
2022-12-24T07:31:36.720Z,8.57
2022-12-24T07:34:41.842Z,9.04
2022-12-24T07:37:45.642Z,9.46
2022-12-24T07:40:50.812Z,9.67
2022-12-24T07:43:54.659Z,10.09
2022-12-24T07:46:58.466Z,10.37
2022-12-24T07:50:02.382Z,10.73
2022-12-24T07:53:06.305Z,10.75
2022-12-24T07:56:13.118Z,10.99
2022-12-24T07:59:17.131Z,10.65
2022-12-24T08:02:20.973Z,10.34
2022-12-24T08:05:24.853Z,10.30
2022-12-24T08:08:29.103Z,10.25
2022-12-24T08:11:34.340Z,10.28
2022-12-24T08:14:38.163Z,10.13
2022-12-24T08:17:42.004Z,9.85
2022-12-24T08:20:45.810Z,9.93
2022-12-24T08:23:49.658Z,9.70
2022-12-24T08:26:54.858Z,9.91
2022-12-24T08:29:58.502Z,9.87
2022-12-24T08:33:02.548Z,9.83
2022-12-24T08:36:06.931Z,10.02
2022-12-24T08:39:11.682Z,10.29
2022-12-24T08:42:16.945Z,10.30
2022-12-24T08:45:21.238Z,10.21
2022-12-24T08:48:25.814Z,10.05
2022-12-24T08:51:29.413Z,9.91
2022-12-24T08:54:33.134Z,9.88
2022-12-24T08:57:39.178Z,10.17
2022-12-24T09:00:42.929Z,10.77
2022-12-24T09:03:47.687Z,11.20
2022-12-24T09:06:51.539Z,11.00
2022-12-24T09:09:55.456Z,10.54
2022-12-24T09:13:00.739Z,10.75
2022-12-24T09:16:05.204Z,10.95
2022-12-24T09:19:10.699Z,10.92
2022-12-24T09:22:15.259Z,11.09
2022-12-24T09:25:19.183Z,11.17
2022-12-24T09:28:25.201Z,11.65
2022-12-24T09:31:29.542Z,10.95
2022-12-24T09:34:33.342Z,11.27
2022-12-24T09:37:37.602Z,11.54
2022-12-24T09:40:41.952Z,11.30
2022-12-24T09:43:51.408Z,11.44
2022-12-24T09:46:56.263Z,11.41
2022-12-24T09:50:04.881Z,11.66
2022-12-24T09:53:17.778Z,11.69
2022-12-24T09:56:25.459Z,11.56
2022-12-24T09:59:40.882Z,11.91
2022-12-24T10:02:45.056Z,11.66
2022-12-24T10:06:00.101Z,11.42
2022-12-24T10:09:13.184Z,11.63
2022-12-24T10:12:24.371Z,11.74
2022-12-24T10:15:32.933Z,11.83
2022-12-24T10:18:49.478Z,11.87
2022-12-24T10:22:06.154Z,11.81
2022-12-24T10:25:19.242Z,11.87
2022-12-24T10:28:29.838Z,11.92
2022-12-24T10:31:38.236Z,11.88
2022-12-24T10:34:45.282Z,11.99
2022-12-24T10:37:51.243Z,12.17
2022-12-24T10:40:57.679Z,11.91
2022-12-24T10:44:02.146Z,12.02
2022-12-24T10:47:09.761Z,12.05
2022-12-24T10:50:20.407Z,11.95
2022-12-24T10:53:29.704Z,11.92
2022-12-24T10:56:33.550Z,12.11
2022-12-24T10:59:50.899Z,12.25
2022-12-24T11:03:22.563Z,12.26
2022-12-24T11:06:26.357Z,12.19
2022-12-24T11:09:32.583Z,12.18
2022-12-24T11:12:39.717Z,12.33
2022-12-24T11:15:43.570Z,12.23
2022-12-24T11:18:52.275Z,12.08
2022-12-24T11:22:02.840Z,11.91
2022-12-24T11:25:20.253Z,11.86
2022-12-24T11:28:26.964Z,11.71
2022-12-24T11:31:33.090Z,11.54
2022-12-24T11:34:38.348Z,11.70
2022-12-24T11:37:42.416Z,11.75
2022-12-24T11:40:48.018Z,11.76
2022-12-24T11:43:59.495Z,11.82
2022-12-24T11:47:03.170Z,11.68
2022-12-24T11:50:30.306Z,11.98
2022-12-24T11:53:40.259Z,12.05
2022-12-24T11:56:47.546Z,12.12
2022-12-24T11:59:52.534Z,12.06
2022-12-24T12:03:01.332Z,11.97
2022-12-24T12:06:18.527Z,11.88
2022-12-24T12:09:26.236Z,11.93
2022-12-24T12:12:34.695Z,11.72
2022-12-24T12:15:44.718Z,11.86
2022-12-24T12:18:54.418Z,11.85
2022-12-24T12:22:02.498Z,11.91
2022-12-24T12:25:13.642Z,11.93
2022-12-24T12:28:22.804Z,11.72
2022-12-24T12:31:31.145Z,11.63
2022-12-24T12:34:40.729Z,11.54
2022-12-24T12:37:50.006Z,11.51
2022-12-24T12:41:13.948Z,11.59
2022-12-24T12:44:31.925Z,11.72
2022-12-24T12:47:49.532Z,11.80
2022-12-24T12:51:00.124Z,11.78
2022-12-24T12:54:23.967Z,11.64
2022-12-24T12:57:34.635Z,11.64
2022-12-24T13:00:42.316Z,11.49
2022-12-24T13:04:21.828Z,11.48
2022-12-24T13:07:55.275Z,11.47
2022-12-24T13:11:17.455Z,11.56
2022-12-24T13:14:39.570Z,11.53
2022-12-24T13:18:06.076Z,11.57
2022-12-24T13:21:17.908Z,11.53
2022-12-24T13:24:26.206Z,11.64
2022-12-24T13:27:33.571Z,11.60
2022-12-24T13:30:39.840Z,11.64
2022-12-24T13:33:50.797Z,11.62
2022-12-24T13:37:06.214Z,11.55
2022-12-24T13:40:23.733Z,11.52
2022-12-24T13:44:03.676Z,11.51
2022-12-24T13:47:28.132Z,11.50
2022-12-24T13:50:39.283Z,11.56
2022-12-24T13:53:45.097Z,11.57
2022-12-24T13:56:49.147Z,11.59
2022-12-24T14:00:01.297Z,11.62
2022-12-24T14:03:17.205Z,11.59
2022-12-24T14:06:25.660Z,11.50
2022-12-24T14:09:30.954Z,11.35
2022-12-24T14:12:48.732Z,11.37
2022-12-24T14:16:10.379Z,11.27
2022-12-24T14:19:16.701Z,11.29
2022-12-24T14:22:30.950Z,11.38
2022-12-24T14:25:35.928Z,11.36
2022-12-24T14:28:46.420Z,11.32
2022-12-24T14:31:54.992Z,11.29
2022-12-24T14:35:08.449Z,11.32
2022-12-24T14:38:19.007Z,11.28
2022-12-24T14:41:36.045Z,11.23
2022-12-24T14:44:48.770Z,11.19
2022-12-24T14:48:05.521Z,11.06
2022-12-24T14:51:19.685Z,11.08
2022-12-24T14:54:36.956Z,11.18
2022-12-24T14:57:40.830Z,11.17
2022-12-24T15:00:45.073Z,11.10
2022-12-24T15:04:02.105Z,11.03
2022-12-24T15:07:07.962Z,11.05
2022-12-24T15:10:27.569Z,11.04
2022-12-24T15:13:37.286Z,11.04
2022-12-24T15:16:42.065Z,10.88
2022-12-24T15:19:52.761Z,10.85
2022-12-24T15:22:59.142Z,10.86
2022-12-24T15:26:22.658Z,10.81
2022-12-24T15:29:29.180Z,10.80
2022-12-24T15:32:35.821Z,10.79
2022-12-24T15:35:52.871Z,10.82
2022-12-24T15:38:59.223Z,10.82
2022-12-24T15:42:15.324Z,10.78
2022-12-24T15:45:27.173Z,10.49
2022-12-24T15:48:33.367Z,10.70
2022-12-24T15:51:40.449Z,10.78
2022-12-24T15:54:49.620Z,10.72
2022-12-24T15:57:56.376Z,10.61
2022-12-24T16:01:06.513Z,10.63
2022-12-24T16:04:15.313Z,10.70
2022-12-24T16:07:48.403Z,10.69
2022-12-24T16:10:55.538Z,10.69
2022-12-24T16:14:07.039Z,10.47
2022-12-24T16:17:20.664Z,10.65
2022-12-24T16:20:24.685Z,10.39
2022-12-24T16:23:40.257Z,10.49
2022-12-24T16:26:44.015Z,10.63
2022-12-24T16:29:47.711Z,10.65
2022-12-24T16:32:52.407Z,10.60
2022-12-24T16:35:56.672Z,10.52
2022-12-24T16:39:19.164Z,10.38
2022-12-24T16:42:40.393Z,10.14
2022-12-24T16:45:45.724Z,10.27
2022-12-24T16:48:50.568Z,10.23
2022-12-24T16:51:54.529Z,10.15
2022-12-24T16:54:59.761Z,9.88
2022-12-24T16:58:03.354Z,10.01
2022-12-24T17:01:11.120Z,9.95
2022-12-24T17:04:15.598Z,10.04
2022-12-24T17:07:20.901Z,10.17
2022-12-24T17:10:26.339Z,10.12
2022-12-24T17:13:30.002Z,10.34
2022-12-24T17:16:33.826Z,10.38
2022-12-24T17:19:37.976Z,10.47
2022-12-24T17:22:41.832Z,10.34
2022-12-24T17:25:48.031Z,10.53
2022-12-24T17:28:55.613Z,10.59
2022-12-24T17:31:59.362Z,10.65
2022-12-24T17:35:03.231Z,10.62
2022-12-24T17:38:07.062Z,10.68
2022-12-24T17:41:19.537Z,10.73
2022-12-24T17:44:23.672Z,10.73
2022-12-24T17:47:27.472Z,10.80
2022-12-24T17:50:31.308Z,10.90
2022-12-24T17:53:35.595Z,10.86
2022-12-24T17:56:40.791Z,10.95
2022-12-24T17:59:44.453Z,10.94
2022-12-24T18:02:48.453Z,10.95
2022-12-24T18:05:53.226Z,10.89
2022-12-24T18:08:58.701Z,10.86
2022-12-24T18:12:03.979Z,10.94
2022-12-24T18:15:08.931Z,10.90
2022-12-24T18:18:12.638Z,10.97
2022-12-24T18:21:16.679Z,10.99
2022-12-24T18:24:20.923Z,11.02
2022-12-24T18:27:26.112Z,11.05
2022-12-24T18:30:29.871Z,11.02
2022-12-24T18:33:35.598Z,11.02
2022-12-24T18:36:39.590Z,11.08
2022-12-24T18:39:47.880Z,11.08
2022-12-24T18:42:53.110Z,11.19
2022-12-24T18:45:56.906Z,11.21
2022-12-24T18:49:01.501Z,11.26
2022-12-24T18:52:05.421Z,11.31
2022-12-24T18:55:10.234Z,11.38
2022-12-24T18:58:15.402Z,11.41
2022-12-24T19:01:25.566Z,11.48
2022-12-24T19:04:30.170Z,11.46
2022-12-24T19:07:33.978Z,11.49
2022-12-24T19:10:38.789Z,11.48
2022-12-24T19:13:47.230Z,11.50
2022-12-24T19:16:51.632Z,11.49
2022-12-24T19:19:55.481Z,11.50
2022-12-24T19:22:59.263Z,11.51
2022-12-24T19:26:03.279Z,11.50
2022-12-24T19:29:08.421Z,11.55
2022-12-24T19:32:12.308Z,11.58
2022-12-24T19:35:16.086Z,11.45
2022-12-24T19:38:19.778Z,11.38
2022-12-24T19:41:26.011Z,11.33
2022-12-24T19:44:31.382Z,11.28
2022-12-24T19:47:35.216Z,11.25
2022-12-24T19:50:38.973Z,11.25
2022-12-24T19:53:42.900Z,11.25
2022-12-24T19:56:46.697Z,11.14
2022-12-24T19:59:51.967Z,11.18
2022-12-24T20:02:55.924Z,11.21
2022-12-24T20:05:59.880Z,11.32
2022-12-24T20:09:06.356Z,11.37
2022-12-24T20:12:10.109Z,11.36
2022-12-24T20:15:15.377Z,11.44
2022-12-24T20:18:19.315Z,11.56
2022-12-24T20:21:23.564Z,11.49
2022-12-24T20:24:28.220Z,11.54
2022-12-24T20:27:32.108Z,11.56
2022-12-24T20:30:40.546Z,11.60
2022-12-24T20:33:45.811Z,11.54
2022-12-24T20:36:49.580Z,11.51
2022-12-24T20:39:53.508Z,11.39
2022-12-24T20:42:57.356Z,11.48
2022-12-24T20:46:02.527Z,11.45
2022-12-24T20:49:06.804Z,11.43
2022-12-24T20:52:10.599Z,11.47
2022-12-24T20:55:15.734Z,11.44
2022-12-24T20:58:19.845Z,11.40
2022-12-24T21:01:28.813Z,11.44
2022-12-24T21:04:32.846Z,11.45
2022-12-24T21:07:39.195Z,11.38
2022-12-24T21:10:44.067Z,11.31
2022-12-24T21:13:46.790Z,11.37
2022-12-24T21:16:52.759Z,11.36
2022-12-24T21:19:57.422Z,11.39
2022-12-24T21:23:01.906Z,11.47
2022-12-24T21:26:06.898Z,11.34
2022-12-24T21:29:14.914Z,11.33
2022-12-24T21:32:20.138Z,11.46
2022-12-24T21:35:23.776Z,11.43
2022-12-24T21:38:27.745Z,11.47
2022-12-24T21:41:31.335Z,11.47
2022-12-24T21:44:37.048Z,11.48
2022-12-24T21:47:44.830Z,11.57
2022-12-24T21:50:57.437Z,11.59
2022-12-24T21:54:18.534Z,11.65
2022-12-24T21:57:39.396Z,11.59
2022-12-24T22:00:43.168Z,11.54
2022-12-24T22:03:50.825Z,11.64
2022-12-24T22:07:11.815Z,11.68
2022-12-24T22:10:33.234Z,11.62
2022-12-24T22:13:37.047Z,11.60
2022-12-24T22:16:40.765Z,11.65
2022-12-24T22:19:46.135Z,11.63
2022-12-24T22:22:50.009Z,11.68
2022-12-24T22:25:54.949Z,11.64
2022-12-24T22:28:58.837Z,11.56
2022-12-24T22:32:02.613Z,11.59
2022-12-24T22:35:08.471Z,11.59
2022-12-24T22:38:12.895Z,11.59
2022-12-24T22:41:16.941Z,11.50
2022-12-24T22:44:20.729Z,11.49
2022-12-24T22:47:24.441Z,11.41
2022-12-24T22:50:29.415Z,11.46
2022-12-24T22:53:33.044Z,11.52
2022-12-24T22:56:40.930Z,11.42
2022-12-24T22:59:47.423Z,11.48
2022-12-24T23:02:51.071Z,11.49
2022-12-24T23:06:00.809Z,11.43
2022-12-24T23:09:06.140Z,11.42
2022-12-24T23:12:10.267Z,11.13
2022-12-24T23:15:12.995Z,11.17
2022-12-24T23:18:16.728Z,11.17
2022-12-24T23:21:22.083Z,11.09
2022-12-24T23:24:25.699Z,11.09
2022-12-24T23:27:29.394Z,11.17
2022-12-24T23:30:33.115Z,11.25
2022-12-24T23:33:37.137Z,11.19
2022-12-24T23:36:42.444Z,11.21
2022-12-24T23:39:46.560Z,11.30
2022-12-24T23:42:50.173Z,11.22
2022-12-24T23:45:55.127Z,11.19
2022-12-24T23:48:58.718Z,11.20
2022-12-24T23:52:04.377Z,11.21
2022-12-24T23:55:08.738Z,11.09
2022-12-24T23:58:15.102Z,11.26
